26XA weather

Solana North Heliport
Westlake, Texas, United States

Public forecast

Using degrees Fahrenheit for public forecast. Weather courtesy of forecast.io.

METAR (pilot weather report)

Closest report is Fort Worth Alliance Airport, 7.4 nm (13.7 km) W. Retrieved 2019/07/23 22:53 UTC (26 minutes ago):

KAFW 232253Z 04012KT 10SM SCT070 32/14 A3007 RMK AO2 SLP168 T03170139

TAF (pilot weather forecast)

Closest forecast is Fort Worth Alliance Airport, 7.4 nm (13.7 km) W. Retrieved 2019/07/23 18:22 UTC (5 hours ago):

TAF KAFW 231720Z 2318/2418 04012G18KT P6SM SCT050 SCT250 FM232300 04010KT P6SM FEW050 SCT250 FM240500 02005KT P6SM SCT250 FM241500 10007KT P6SM SCT250